sensor_id;sensor_type;location;lat;lon;timestamp;P1;durP1;ratioP1;P2;durP2;ratioP2
50880;SDS011;36858;47.832;-3.800;2023-04-29T00:01:54;3.40;;;2.90;;
50880;SDS011;36858;47.832;-3.800;2023-04-29T00:04:24;3.20;;;2.80;;
50880;SDS011;36858;47.832;-3.800;2023-04-29T00:06:52;5.17;;;2.57;;
50880;SDS011;36858;47.832;-3.800;2023-04-29T00:09:20;3.47;;;2.40;;
50880;SDS011;36858;47.832;-3.800;2023-04-29T00:11:47;2.77;;;2.30;;
50880;SDS011;36858;47.832;-3.800;2023-04-29T00:14:14;3.07;;;2.50;;
50880;SDS011;36858;47.832;-3.800;2023-04-29T00:16:42;6.40;;;2.37;;
50880;SDS011;36858;47.832;-3.800;2023-04-29T00:19:09;2.37;;;2.17;;
50880;SDS011;36858;47.832;-3.800;2023-04-29T00:21:35;2.57;;;2.30;;
50880;SDS011;36858;47.832;-3.800;2023-04-29T00:24:02;4.70;;;2.47;;
50880;SDS011;36858;47.832;-3.800;2023-04-29T00:26:30;2.90;;;2.20;;
50880;SDS011;36858;47.832;-3.800;2023-04-29T00:28:57;2.50;;;2.23;;
50880;SDS011;36858;47.832;-3.800;2023-04-29T00:31:24;4.07;;;2.43;;
50880;SDS011;36858;47.832;-3.800;2023-04-29T00:33:51;3.20;;;2.20;;
50880;SDS011;36858;47.832;-3.800;2023-04-29T00:36:17;2.60;;;2.40;;
50880;SDS011;36858;47.832;-3.800;2023-04-29T00:38:44;3.83;;;2.43;;
50880;SDS011;36858;47.832;-3.800;2023-04-29T00:41:11;2.40;;;2.20;;
50880;SDS011;36858;47.832;-3.800;2023-04-29T00:43:38;2.27;;;2.07;;
50880;SDS011;36858;47.832;-3.800;2023-04-29T00:46:06;2.03;;;1.93;;
50880;SDS011;36858;47.832;-3.800;2023-04-29T00:48:33;2.03;;;1.83;;
50880;SDS011;36858;47.832;-3.800;2023-04-29T00:50:59;3.90;;;2.53;;
50880;SDS011;36858;47.832;-3.800;2023-04-29T00:53:27;2.40;;;2.20;;
50880;SDS011;36858;47.832;-3.800;2023-04-29T00:55:54;6.50;;;2.13;;
50880;SDS011;36858;47.832;-3.800;2023-04-29T00:58:21;5.97;;;3.07;;
50880;SDS011;36858;47.832;-3.800;2023-04-29T01:00:55;7.67;;;3.00;;
50880;SDS011;36858;47.832;-3.800;2023-04-29T01:03:22;5.33;;;2.47;;
50880;SDS011;36858;47.832;-3.800;2023-04-29T01:05:51;3.23;;;2.27;;
50880;SDS011;36858;47.832;-3.800;2023-04-29T01:11:23;2.67;;;2.40;;
50880;SDS011;36858;47.832;-3.800;2023-04-29T01:13:58;2.80;;;2.30;;
50880;SDS011;36858;47.832;-3.800;2023-04-29T01:16:46;3.00;;;2.13;;
50880;SDS011;36858;47.832;-3.800;2023-04-29T01:21:59;8.20;;;2.47;;
50880;SDS011;36858;47.832;-3.800;2023-04-29T01:24:26;3.10;;;2.30;;
50880;SDS011;36858;47.832;-3.800;2023-04-29T01:27:05;2.97;;;1.90;;
50880;SDS011;36858;47.832;-3.800;2023-04-29T01:30:06;2.60;;;2.37;;
50880;SDS011;36858;47.832;-3.800;2023-04-29T01:32:55;2.60;;;1.90;;
50880;SDS011;36858;47.832;-3.800;2023-04-29T01:40:47;2.30;;;1.97;;
50880;SDS011;36858;47.832;-3.800;2023-04-29T01:43:22;2.00;;;1.80;;
50880;SDS011;36858;47.832;-3.800;2023-04-29T01:45:51;2.00;;;1.80;;
50880;SDS011;36858;47.832;-3.800;2023-04-29T01:48:18;1.90;;;1.67;;
50880;SDS011;36858;47.832;-3.800;2023-04-29T01:50:46;2.63;;;2.00;;
50880;SDS011;36858;47.832;-3.800;2023-04-29T01:53:13;2.17;;;1.97;;
50880;SDS011;36858;47.832;-3.800;2023-04-29T01:55:41;2.60;;;2.40;;
50880;SDS011;36858;47.832;-3.800;2023-04-29T01:58:09;3.00;;;2.20;;
50880;SDS011;36858;47.832;-3.800;2023-04-29T02:00:36;2.17;;;1.97;;
50880;SDS011;36858;47.832;-3.800;2023-04-29T02:03:04;3.43;;;2.27;;
50880;SDS011;36858;47.832;-3.800;2023-04-29T02:05:31;4.30;;;2.07;;
50880;SDS011;36858;47.832;-3.800;2023-04-29T02:07:59;3.80;;;2.10;;
50880;SDS011;36858;47.832;-3.800;2023-04-29T02:10:27;3.27;;;2.13;;
50880;SDS011;36858;47.832;-3.800;2023-04-29T02:12:53;2.60;;;2.40;;
50880;SDS011;36858;47.832;-3.800;2023-04-29T02:15:20;2.60;;;2.40;;
50880;SDS011;36858;47.832;-3.800;2023-04-29T02:17:47;3.47;;;2.53;;
50880;SDS011;36858;47.832;-3.800;2023-04-29T02:20:14;2.17;;;1.97;;
50880;SDS011;36858;47.832;-3.800;2023-04-29T02:22:41;2.37;;;1.90;;
50880;SDS011;36858;47.832;-3.800;2023-04-29T02:25:09;4.13;;;2.47;;
50880;SDS011;36858;47.832;-3.800;2023-04-29T02:27:36;2.57;;;2.37;;
50880;SDS011;36858;47.832;-3.800;2023-04-29T02:30:03;3.73;;;2.43;;
50880;SDS011;36858;47.832;-3.800;2023-04-29T02:32:31;2.23;;;2.00;;
50880;SDS011;36858;47.832;-3.800;2023-04-29T02:34:57;2.50;;;2.30;;
50880;SDS011;36858;47.832;-3.800;2023-04-29T02:37:24;4.23;;;2.27;;
50880;SDS011;36858;47.832;-3.800;2023-04-29T02:39:51;4.53;;;2.63;;
50880;SDS011;36858;47.832;-3.800;2023-04-29T02:42:19;3.67;;;2.37;;
50880;SDS011;36858;47.832;-3.800;2023-04-29T02:44:45;4.57;;;2.60;;
50880;SDS011;36858;47.832;-3.800;2023-04-29T02:47:12;2.63;;;2.43;;
50880;SDS011;36858;47.832;-3.800;2023-04-29T02:49:39;2.30;;;2.10;;
50880;SDS011;36858;47.832;-3.800;2023-04-29T02:52:06;5.33;;;2.20;;
50880;SDS011;36858;47.832;-3.800;2023-04-29T02:54:33;2.20;;;2.00;;
50880;SDS011;36858;47.832;-3.800;2023-04-29T02:57:00;3.60;;;1.80;;
50880;SDS011;36858;47.832;-3.800;2023-04-29T02:59:27;2.83;;;2.33;;
50880;SDS011;36858;47.832;-3.800;2023-04-29T03:01:53;2.93;;;1.87;;
50880;SDS011;36858;47.832;-3.800;2023-04-29T03:04:20;2.43;;;1.80;;
50880;SDS011;36858;47.832;-3.800;2023-04-29T03:06:48;2.20;;;2.00;;
50880;SDS011;36858;47.832;-3.800;2023-04-29T03:09:14;2.60;;;1.70;;
50880;SDS011;36858;47.832;-3.800;2023-04-29T03:11:41;2.90;;;2.10;;
50880;SDS011;36858;47.832;-3.800;2023-04-29T03:14:08;3.07;;;1.90;;
50880;SDS011;36858;47.832;-3.800;2023-04-29T03:16:35;2.30;;;1.97;;
50880;SDS011;36858;47.832;-3.800;2023-04-29T03:19:02;2.10;;;1.90;;
50880;SDS011;36858;47.832;-3.800;2023-04-29T03:21:29;2.57;;;1.90;;
50880;SDS011;36858;47.832;-3.800;2023-04-29T03:23:56;2.20;;;2.00;;
50880;SDS011;36858;47.832;-3.800;2023-04-29T03:26:23;2.10;;;1.90;;
50880;SDS011;36858;47.832;-3.800;2023-04-29T03:28:50;4.30;;;1.60;;
50880;SDS011;36858;47.832;-3.800;2023-04-29T03:31:17;2.03;;;1.83;;
50880;SDS011;36858;47.832;-3.800;2023-04-29T03:33:46;1.67;;;1.50;;
50880;SDS011;36858;47.832;-3.800;2023-04-29T03:36:13;1.80;;;1.70;;
50880;SDS011;36858;47.832;-3.800;2023-04-29T03:38:40;2.07;;;1.80;;
50880;SDS011;36858;47.832;-3.800;2023-04-29T03:41:07;1.83;;;1.60;;
50880;SDS011;36858;47.832;-3.800;2023-04-29T03:43:34;2.47;;;2.00;;
50880;SDS011;36858;47.832;-3.800;2023-04-29T03:46:01;2.50;;;1.60;;
50880;SDS011;36858;47.832;-3.800;2023-04-29T03:48:28;1.70;;;1.60;;
50880;SDS011;36858;47.832;-3.800;2023-04-29T03:50:55;2.00;;;1.77;;
50880;SDS011;36858;47.832;-3.800;2023-04-29T03:53:23;1.97;;;1.80;;
50880;SDS011;36858;47.832;-3.800;2023-04-29T03:55:51;2.43;;;1.40;;
50880;SDS011;36858;47.832;-3.800;2023-04-29T03:58:18;1.60;;;1.40;;
50880;SDS011;36858;47.832;-3.800;2023-04-29T04:00:45;1.90;;;1.80;;
50880;SDS011;36858;47.832;-3.800;2023-04-29T04:03:12;1.60;;;1.40;;
50880;SDS011;36858;47.832;-3.800;2023-04-29T04:05:39;2.30;;;1.73;;
50880;SDS011;36858;47.832;-3.800;2023-04-29T04:08:06;2.07;;;1.63;;
50880;SDS011;36858;47.832;-3.800;2023-04-29T04:10:33;2.93;;;1.47;;
50880;SDS011;36858;47.832;-3.800;2023-04-29T04:12:59;1.67;;;1.57;;
50880;SDS011;36858;47.832;-3.800;2023-04-29T04:15:26;2.00;;;1.80;;
50880;SDS011;36858;47.832;-3.800;2023-04-29T04:17:53;1.53;;;1.43;;
50880;SDS011;36858;47.832;-3.800;2023-04-29T04:20:20;1.40;;;1.23;;
50880;SDS011;36858;47.832;-3.800;2023-04-29T04:22:47;1.60;;;1.50;;
50880;SDS011;36858;47.832;-3.800;2023-04-29T04:25:14;2.50;;;1.50;;
50880;SDS011;36858;47.832;-3.800;2023-04-29T04:27:41;1.53;;;1.43;;
50880;SDS011;36858;47.832;-3.800;2023-04-29T04:30:08;1.63;;;1.40;;
50880;SDS011;36858;47.832;-3.800;2023-04-29T04:32:35;3.47;;;1.93;;
50880;SDS011;36858;47.832;-3.800;2023-04-29T04:35:02;5.63;;;2.47;;
50880;SDS011;36858;47.832;-3.800;2023-04-29T04:37:29;4.03;;;2.03;;
50880;SDS011;36858;47.832;-3.800;2023-04-29T04:39:56;4.90;;;1.97;;
50880;SDS011;36858;47.832;-3.800;2023-04-29T04:42:22;3.13;;;1.77;;
50880;SDS011;36858;47.832;-3.800;2023-04-29T04:44:49;1.93;;;1.60;;
50880;SDS011;36858;47.832;-3.800;2023-04-29T04:47:18;4.80;;;1.90;;
50880;SDS011;36858;47.832;-3.800;2023-04-29T04:49:45;1.80;;;1.37;;
50880;SDS011;36858;47.832;-3.800;2023-04-29T04:52:12;2.03;;;1.57;;
50880;SDS011;36858;47.832;-3.800;2023-04-29T04:54:39;1.50;;;1.37;;
50880;SDS011;36858;47.832;-3.800;2023-04-29T04:57:05;2.40;;;1.40;;
50880;SDS011;36858;47.832;-3.800;2023-04-29T04:59:32;2.23;;;1.53;;
50880;SDS011;36858;47.832;-3.800;2023-04-29T05:01:59;5.33;;;1.73;;
50880;SDS011;36858;47.832;-3.800;2023-04-29T05:04:26;2.50;;;1.77;;
50880;SDS011;36858;47.832;-3.800;2023-04-29T05:06:53;2.23;;;1.97;;
50880;SDS011;36858;47.832;-3.800;2023-04-29T05:09:20;8.33;;;2.43;;
50880;SDS011;36858;47.832;-3.800;2023-04-29T05:11:47;3.57;;;1.70;;
50880;SDS011;36858;47.832;-3.800;2023-04-29T05:14:14;2.03;;;1.40;;
50880;SDS011;36858;47.832;-3.800;2023-04-29T05:16:41;1.70;;;1.60;;
50880;SDS011;36858;47.832;-3.800;2023-04-29T05:19:09;2.93;;;1.60;;
50880;SDS011;36858;47.832;-3.800;2023-04-29T05:21:35;2.23;;;1.53;;
50880;SDS011;36858;47.832;-3.800;2023-04-29T05:24:02;4.23;;;1.60;;
50880;SDS011;36858;47.832;-3.800;2023-04-29T05:26:29;1.80;;;1.47;;
50880;SDS011;36858;47.832;-3.800;2023-04-29T05:28:56;2.57;;;1.70;;
50880;SDS011;36858;47.832;-3.800;2023-04-29T05:31:23;1.70;;;1.57;;
50880;SDS011;36858;47.832;-3.800;2023-04-29T05:33:50;2.40;;;1.47;;
50880;SDS011;36858;47.832;-3.800;2023-04-29T05:36:17;3.07;;;1.37;;
50880;SDS011;36858;47.832;-3.800;2023-04-29T05:38:44;1.93;;;1.00;;
50880;SDS011;36858;47.832;-3.800;2023-04-29T05:41:11;2.10;;;1.40;;
50880;SDS011;36858;47.832;-3.800;2023-04-29T05:43:39;1.33;;;1.20;;
50880;SDS011;36858;47.832;-3.800;2023-04-29T05:46:06;1.47;;;1.37;;
50880;SDS011;36858;47.832;-3.800;2023-04-29T05:48:33;1.50;;;1.40;;
50880;SDS011;36858;47.832;-3.800;2023-04-29T05:51:00;1.60;;;1.30;;
50880;SDS011;36858;47.832;-3.800;2023-04-29T05:53:27;1.67;;;0.90;;
50880;SDS011;36858;47.832;-3.800;2023-04-29T05:55:54;1.43;;;1.00;;
50880;SDS011;36858;47.832;-3.800;2023-04-29T05:58:21;1.10;;;1.00;;
50880;SDS011;36858;47.832;-3.800;2023-04-29T06:00:47;1.90;;;1.30;;
50880;SDS011;36858;47.832;-3.800;2023-04-29T06:03:15;1.23;;;1.07;;
50880;SDS011;36858;47.832;-3.800;2023-04-29T06:05:42;1.00;;;1.00;;
50880;SDS011;36858;47.832;-3.800;2023-04-29T06:08:10;2.00;;;1.00;;
50880;SDS011;36858;47.832;-3.800;2023-04-29T06:10:36;1.00;;;0.90;;
50880;SDS011;36858;47.832;-3.800;2023-04-29T06:13:03;1.13;;;1.00;;
50880;SDS011;36858;47.832;-3.800;2023-04-29T06:15:30;1.73;;;0.90;;
50880;SDS011;36858;47.832;-3.800;2023-04-29T06:17:58;0.70;;;0.70;;
50880;SDS011;36858;47.832;-3.800;2023-04-29T06:20:25;1.23;;;1.03;;
50880;SDS011;36858;47.832;-3.800;2023-04-29T06:22:52;1.20;;;0.67;;
50880;SDS011;36858;47.832;-3.800;2023-04-29T06:25:19;1.33;;;1.20;;
50880;SDS011;36858;47.832;-3.800;2023-04-29T06:27:46;2.40;;;1.00;;
50880;SDS011;36858;47.832;-3.800;2023-04-29T06:30:13;0.87;;;0.83;;
50880;SDS011;36858;47.832;-3.800;2023-04-29T06:32:40;2.40;;;1.20;;
50880;SDS011;36858;47.832;-3.800;2023-04-29T06:35:07;1.67;;;0.90;;
50880;SDS011;36858;47.832;-3.800;2023-04-29T06:37:34;1.07;;;0.80;;
50880;SDS011;36858;47.832;-3.800;2023-04-29T06:40:03;0.97;;;0.90;;
50880;SDS011;36858;47.832;-3.800;2023-04-29T06:42:31;1.20;;;1.00;;
50880;SDS011;36858;47.832;-3.800;2023-04-29T06:44:58;0.80;;;0.80;;
50880;SDS011;36858;47.832;-3.800;2023-04-29T06:47:24;1.50;;;1.10;;
50880;SDS011;36858;47.832;-3.800;2023-04-29T06:49:51;2.33;;;0.90;;
50880;SDS011;36858;47.832;-3.800;2023-04-29T06:52:19;1.70;;;1.20;;
50880;SDS011;36858;47.832;-3.800;2023-04-29T06:54:46;2.00;;;0.90;;
50880;SDS011;36858;47.832;-3.800;2023-04-29T06:57:12;1.60;;;1.00;;
50880;SDS011;36858;47.832;-3.800;2023-04-29T06:59:39;1.13;;;1.00;;
50880;SDS011;36858;47.832;-3.800;2023-04-29T07:02:06;1.60;;;1.13;;
50880;SDS011;36858;47.832;-3.800;2023-04-29T07:04:33;1.20;;;1.10;;
50880;SDS011;36858;47.832;-3.800;2023-04-29T07:07:00;0.70;;;0.70;;
50880;SDS011;36858;47.832;-3.800;2023-04-29T07:09:27;0.80;;;0.80;;
50880;SDS011;36858;47.832;-3.800;2023-04-29T07:11:54;1.33;;;0.80;;
50880;SDS011;36858;47.832;-3.800;2023-04-29T07:14:21;0.80;;;0.80;;
50880;SDS011;36858;47.832;-3.800;2023-04-29T07:16:52;1.50;;;0.70;;
50880;SDS011;36858;47.832;-3.800;2023-04-29T07:19:20;2.13;;;0.97;;
50880;SDS011;36858;47.832;-3.800;2023-04-29T07:21:47;0.80;;;0.80;;
50880;SDS011;36858;47.832;-3.800;2023-04-29T07:24:14;0.90;;;0.80;;
50880;SDS011;36858;47.832;-3.800;2023-04-29T07:26:42;1.83;;;1.00;;
50880;SDS011;36858;47.832;-3.800;2023-04-29T07:29:10;1.33;;;0.97;;
50880;SDS011;36858;47.832;-3.800;2023-04-29T07:31:37;1.07;;;0.97;;
50880;SDS011;36858;47.832;-3.800;2023-04-29T07:34:04;1.53;;;1.10;;
50880;SDS011;36858;47.832;-3.800;2023-04-29T07:36:31;1.10;;;0.90;;
50880;SDS011;36858;47.832;-3.800;2023-04-29T07:38:58;2.87;;;1.10;;
50880;SDS011;36858;47.832;-3.800;2023-04-29T07:41:25;1.30;;;1.10;;
50880;SDS011;36858;47.832;-3.800;2023-04-29T07:43:53;0.93;;;0.80;;
50880;SDS011;36858;47.832;-3.800;2023-04-29T07:46:20;1.03;;;0.90;;
50880;SDS011;36858;47.832;-3.800;2023-04-29T07:48:46;0.83;;;0.83;;
50880;SDS011;36858;47.832;-3.800;2023-04-29T07:51:14;1.40;;;1.30;;
50880;SDS011;36858;47.832;-3.800;2023-04-29T07:53:40;1.40;;;0.90;;
50880;SDS011;36858;47.832;-3.800;2023-04-29T07:56:07;1.03;;;1.00;;
50880;SDS011;36858;47.832;-3.800;2023-04-29T07:58:35;0.90;;;0.90;;
50880;SDS011;36858;47.832;-3.800;2023-04-29T08:01:07;5.50;;;1.80;;
50880;SDS011;36858;47.832;-3.800;2023-04-29T08:03:35;9.17;;;3.40;;
50880;SDS011;36858;47.832;-3.800;2023-04-29T08:06:06;2.13;;;1.50;;
50880;SDS011;36858;47.832;-3.800;2023-04-29T08:08:33;1.23;;;1.10;;
50880;SDS011;36858;47.832;-3.800;2023-04-29T08:11:00;2.23;;;1.20;;
50880;SDS011;36858;47.832;-3.800;2023-04-29T08:13:27;0.83;;;0.83;;
50880;SDS011;36858;47.832;-3.800;2023-04-29T08:15:54;2.70;;;0.90;;
50880;SDS011;36858;47.832;-3.800;2023-04-29T08:18:21;1.57;;;0.93;;
50880;SDS011;36858;47.832;-3.800;2023-04-29T08:20:48;2.20;;;1.13;;
50880;SDS011;36858;47.832;-3.800;2023-04-29T08:23:15;1.00;;;1.00;;
50880;SDS011;36858;47.832;-3.800;2023-04-29T08:25:42;1.00;;;1.00;;
50880;SDS011;36858;47.832;-3.800;2023-04-29T08:28:09;1.87;;;1.10;;
50880;SDS011;36858;47.832;-3.800;2023-04-29T08:30:39;1.10;;;1.00;;
50880;SDS011;36858;47.832;-3.800;2023-04-29T08:33:07;1.50;;;1.10;;
50880;SDS011;36858;47.832;-3.800;2023-04-29T08:35:34;0.80;;;0.80;;
50880;SDS011;36858;47.832;-3.800;2023-04-29T08:38:04;1.17;;;1.07;;
50880;SDS011;36858;47.832;-3.800;2023-04-29T08:40:35;1.20;;;1.10;;
50880;SDS011;36858;47.832;-3.800;2023-04-29T08:43:02;0.87;;;0.80;;
50880;SDS011;36858;47.832;-3.800;2023-04-29T08:45:30;1.03;;;1.03;;
50880;SDS011;36858;47.832;-3.800;2023-04-29T08:47:59;0.90;;;0.90;;
50880;SDS011;36858;47.832;-3.800;2023-04-29T08:50:28;1.03;;;0.93;;
50880;SDS011;36858;47.832;-3.800;2023-04-29T08:52:56;1.27;;;0.90;;
50880;SDS011;36858;47.832;-3.800;2023-04-29T08:55:23;1.00;;;1.00;;
50880;SDS011;36858;47.832;-3.800;2023-04-29T08:57:50;1.37;;;0.90;;
50880;SDS011;36858;47.832;-3.800;2023-04-29T09:00:20;0.97;;;0.90;;
50880;SDS011;36858;47.832;-3.800;2023-04-29T09:02:49;1.20;;;1.10;;
50880;SDS011;36858;47.832;-3.800;2023-04-29T09:05:17;1.27;;;1.17;;
50880;SDS011;36858;47.832;-3.800;2023-04-29T09:07:44;1.13;;;1.00;;
50880;SDS011;36858;47.832;-3.800;2023-04-29T09:10:11;0.87;;;0.87;;
50880;SDS011;36858;47.832;-3.800;2023-04-29T09:12:38;4.07;;;1.70;;
50880;SDS011;36858;47.832;-3.800;2023-04-29T09:15:05;1.30;;;1.20;;
50880;SDS011;36858;47.832;-3.800;2023-04-29T09:17:39;1.50;;;1.20;;
50880;SDS011;36858;47.832;-3.800;2023-04-29T09:22:47;1.97;;;1.20;;
50880;SDS011;36858;47.832;-3.800;2023-04-29T09:25:18;1.40;;;1.07;;
50880;SDS011;36858;47.832;-3.800;2023-04-29T09:27:46;2.03;;;1.00;;
50880;SDS011;36858;47.832;-3.800;2023-04-29T09:30:13;1.27;;;1.03;;
50880;SDS011;36858;47.832;-3.800;2023-04-29T09:32:42;2.53;;;1.30;;
50880;SDS011;36858;47.832;-3.800;2023-04-29T09:37:51;2.43;;;1.10;;
50880;SDS011;36858;47.832;-3.800;2023-04-29T09:40:28;1.20;;;1.00;;
50880;SDS011;36858;47.832;-3.800;2023-04-29T09:42:56;1.53;;;1.27;;
50880;SDS011;36858;47.832;-3.800;2023-04-29T09:45:39;1.57;;;1.10;;
50880;SDS011;36858;47.832;-3.800;2023-04-29T09:48:08;1.10;;;1.10;;
50880;SDS011;36858;47.832;-3.800;2023-04-29T09:50:36;1.30;;;1.20;;
50880;SDS011;36858;47.832;-3.800;2023-04-29T09:53:05;1.10;;;0.83;;
50880;SDS011;36858;47.832;-3.800;2023-04-29T09:55:34;2.23;;;1.07;;
50880;SDS011;36858;47.832;-3.800;2023-04-29T09:58:02;1.93;;;1.20;;
50880;SDS011;36858;47.832;-3.800;2023-04-29T10:00:29;1.80;;;1.00;;
50880;SDS011;36858;47.832;-3.800;2023-04-29T10:03:00;1.33;;;1.00;;
50880;SDS011;36858;47.832;-3.800;2023-04-29T10:05:28;1.63;;;1.10;;
50880;SDS011;36858;47.832;-3.800;2023-04-29T10:07:57;1.27;;;0.97;;
50880;SDS011;36858;47.832;-3.800;2023-04-29T10:10:25;1.10;;;1.00;;
50880;SDS011;36858;47.832;-3.800;2023-04-29T10:12:55;1.87;;;1.10;;
50880;SDS011;36858;47.832;-3.800;2023-04-29T10:15:30;1.00;;;1.00;;
50880;SDS011;36858;47.832;-3.800;2023-04-29T10:18:05;1.10;;;1.00;;
50880;SDS011;36858;47.832;-3.800;2023-04-29T10:20:47;1.10;;;1.00;;
50880;SDS011;36858;47.832;-3.800;2023-04-29T10:23:14;1.03;;;1.00;;
50880;SDS011;36858;47.832;-3.800;2023-04-29T10:25:42;1.10;;;1.00;;
50880;SDS011;36858;47.832;-3.800;2023-04-29T10:28:11;2.00;;;1.00;;
50880;SDS011;36858;47.832;-3.800;2023-04-29T10:30:41;1.60;;;1.30;;
50880;SDS011;36858;47.832;-3.800;2023-04-29T10:33:12;1.53;;;1.03;;
50880;SDS011;36858;47.832;-3.800;2023-04-29T10:35:42;2.17;;;1.50;;
50880;SDS011;36858;47.832;-3.800;2023-04-29T10:38:12;2.57;;;1.40;;
50880;SDS011;36858;47.832;-3.800;2023-04-29T10:40:49;1.20;;;1.00;;
50880;SDS011;36858;47.832;-3.800;2023-04-29T10:43:22;2.10;;;1.00;;
50880;SDS011;36858;47.832;-3.800;2023-04-29T10:45:49;1.83;;;1.13;;
50880;SDS011;36858;47.832;-3.800;2023-04-29T10:48:43;1.40;;;1.30;;
50880;SDS011;36858;47.832;-3.800;2023-04-29T10:51:11;1.33;;;1.03;;
50880;SDS011;36858;47.832;-3.800;2023-04-29T10:53:57;1.80;;;1.40;;
50880;SDS011;36858;47.832;-3.800;2023-04-29T10:56:39;2.63;;;1.80;;
50880;SDS011;36858;47.832;-3.800;2023-04-29T10:59:11;2.87;;;1.40;;
50880;SDS011;36858;47.832;-3.800;2023-04-29T11:01:43;5.73;;;2.37;;
50880;SDS011;36858;47.832;-3.800;2023-04-29T11:04:21;5.23;;;1.77;;
50880;SDS011;36858;47.832;-3.800;2023-04-29T11:06:55;3.97;;;1.60;;
50880;SDS011;36858;47.832;-3.800;2023-04-29T11:09:27;1.50;;;1.20;;
50880;SDS011;36858;47.832;-3.800;2023-04-29T11:17:07;1.53;;;1.43;;
50880;SDS011;36858;47.832;-3.800;2023-04-29T11:19:39;1.37;;;1.27;;
50880;SDS011;36858;47.832;-3.800;2023-04-29T11:22:26;1.90;;;1.67;;
50880;SDS011;36858;47.832;-3.800;2023-04-29T11:24:57;1.70;;;1.60;;
50880;SDS011;36858;47.832;-3.800;2023-04-29T11:27:34;1.87;;;1.50;;
50880;SDS011;36858;47.832;-3.800;2023-04-29T11:30:06;2.57;;;1.50;;
50880;SDS011;36858;47.832;-3.800;2023-04-29T11:32:34;1.50;;;1.40;;
50880;SDS011;36858;47.832;-3.800;2023-04-29T11:35:14;1.43;;;1.33;;
50880;SDS011;36858;47.832;-3.800;2023-04-29T11:37:43;8.00;;;3.30;;
50880;SDS011;36858;47.832;-3.800;2023-04-29T11:40:11;4.63;;;1.97;;
50880;SDS011;36858;47.832;-3.800;2023-04-29T11:42:45;3.23;;;1.70;;
50880;SDS011;36858;47.832;-3.800;2023-04-29T11:45:13;4.87;;;1.80;;
50880;SDS011;36858;47.832;-3.800;2023-04-29T11:47:46;5.13;;;2.00;;
50880;SDS011;36858;47.832;-3.800;2023-04-29T11:50:14;3.70;;;1.90;;
50880;SDS011;36858;47.832;-3.800;2023-04-29T11:52:43;4.53;;;1.67;;
50880;SDS011;36858;47.832;-3.800;2023-04-29T11:55:12;22.43;;;6.97;;
50880;SDS011;36858;47.832;-3.800;2023-04-29T11:57:40;9.43;;;3.77;;
50880;SDS011;36858;47.832;-3.800;2023-04-29T12:00:12;7.90;;;3.50;;
50880;SDS011;36858;47.832;-3.800;2023-04-29T12:02:42;2.73;;;1.97;;
50880;SDS011;36858;47.832;-3.800;2023-04-29T12:05:10;9.23;;;2.83;;
50880;SDS011;36858;47.832;-3.800;2023-04-29T12:07:39;5.00;;;2.20;;
50880;SDS011;36858;47.832;-3.800;2023-04-29T12:10:09;7.27;;;2.83;;
50880;SDS011;36858;47.832;-3.800;2023-04-29T12:12:38;8.30;;;2.53;;
50880;SDS011;36858;47.832;-3.800;2023-04-29T12:15:07;6.57;;;1.70;;
50880;SDS011;36858;47.832;-3.800;2023-04-29T12:17:36;2.47;;;1.70;;
50880;SDS011;36858;47.832;-3.800;2023-04-29T12:20:03;2.00;;;1.80;;
50880;SDS011;36858;47.832;-3.800;2023-04-29T12:22:31;7.53;;;3.77;;
50880;SDS011;36858;47.832;-3.800;2023-04-29T12:25:01;16.13;;;5.40;;
50880;SDS011;36858;47.832;-3.800;2023-04-29T12:27:29;8.57;;;4.53;;
50880;SDS011;36858;47.832;-3.800;2023-04-29T12:29:57;4.83;;;2.17;;
50880;SDS011;36858;47.832;-3.800;2023-04-29T12:32:24;4.77;;;2.17;;
50880;SDS011;36858;47.832;-3.800;2023-04-29T12:34:51;2.03;;;1.60;;
50880;SDS011;36858;47.832;-3.800;2023-04-29T12:37:20;1.63;;;1.53;;
50880;SDS011;36858;47.832;-3.800;2023-04-29T12:39:49;1.77;;;1.67;;
50880;SDS011;36858;47.832;-3.800;2023-04-29T12:42:16;2.00;;;1.63;;
50880;SDS011;36858;47.832;-3.800;2023-04-29T12:44:46;2.50;;;1.37;;
50880;SDS011;36858;47.832;-3.800;2023-04-29T12:47:14;3.00;;;1.27;;
50880;SDS011;36858;47.832;-3.800;2023-04-29T12:49:42;1.53;;;1.30;;
50880;SDS011;36858;47.832;-3.800;2023-04-29T12:52:09;1.90;;;1.13;;
50880;SDS011;36858;47.832;-3.800;2023-04-29T12:54:37;2.87;;;1.30;;
50880;SDS011;36858;47.832;-3.800;2023-04-29T12:57:07;1.53;;;1.20;;
50880;SDS011;36858;47.832;-3.800;2023-04-29T12:59:35;1.50;;;1.30;;
50880;SDS011;36858;47.832;-3.800;2023-04-29T13:02:02;1.30;;;1.20;;
50880;SDS011;36858;47.832;-3.800;2023-04-29T13:04:29;1.37;;;1.23;;
50880;SDS011;36858;47.832;-3.800;2023-04-29T13:06:57;1.67;;;1.27;;
50880;SDS011;36858;47.832;-3.800;2023-04-29T13:09:26;2.60;;;1.50;;
50880;SDS011;36858;47.832;-3.800;2023-04-29T13:11:53;1.73;;;1.27;;
50880;SDS011;36858;47.832;-3.800;2023-04-29T13:14:20;2.23;;;1.33;;
50880;SDS011;36858;47.832;-3.800;2023-04-29T13:16:47;3.20;;;1.70;;
50880;SDS011;36858;47.832;-3.800;2023-04-29T13:19:14;2.37;;;1.50;;
50880;SDS011;36858;47.832;-3.800;2023-04-29T13:22:01;3.83;;;1.97;;
50880;SDS011;36858;47.832;-3.800;2023-04-29T13:24:28;1.67;;;1.40;;
50880;SDS011;36858;47.832;-3.800;2023-04-29T13:26:55;2.57;;;1.40;;
50880;SDS011;36858;47.832;-3.800;2023-04-29T13:29:23;1.30;;;1.20;;
50880;SDS011;36858;47.832;-3.800;2023-04-29T13:31:50;1.80;;;1.23;;
50880;SDS011;36858;47.832;-3.800;2023-04-29T13:34:17;3.20;;;1.47;;
50880;SDS011;36858;47.832;-3.800;2023-04-29T13:36:44;3.13;;;1.73;;
50880;SDS011;36858;47.832;-3.800;2023-04-29T13:39:11;1.70;;;1.60;;
50880;SDS011;36858;47.832;-3.800;2023-04-29T13:41:40;5.27;;;1.53;;
50880;SDS011;36858;47.832;-3.800;2023-04-29T13:44:11;2.07;;;1.73;;
50880;SDS011;36858;47.832;-3.800;2023-04-29T13:46:41;2.00;;;1.53;;
50880;SDS011;36858;47.832;-3.800;2023-04-29T13:49:09;2.00;;;1.70;;
50880;SDS011;36858;47.832;-3.800;2023-04-29T13:51:56;2.07;;;1.63;;
50880;SDS011;36858;47.832;-3.800;2023-04-29T13:54:26;1.90;;;1.80;;
50880;SDS011;36858;47.832;-3.800;2023-04-29T13:57:13;1.67;;;1.57;;
50880;SDS011;36858;47.832;-3.800;2023-04-29T13:59:59;2.70;;;1.67;;
50880;SDS011;36858;47.832;-3.800;2023-04-29T14:02:45;1.93;;;1.80;;
50880;SDS011;36858;47.832;-3.800;2023-04-29T14:05:23;2.53;;;2.27;;
50880;SDS011;36858;47.832;-3.800;2023-04-29T14:07:50;2.10;;;1.83;;
50880;SDS011;36858;47.832;-3.800;2023-04-29T14:10:17;2.97;;;1.90;;
50880;SDS011;36858;47.832;-3.800;2023-04-29T14:12:44;2.03;;;1.83;;
50880;SDS011;36858;47.832;-3.800;2023-04-29T14:15:11;1.80;;;1.70;;
50880;SDS011;36858;47.832;-3.800;2023-04-29T14:17:38;2.87;;;2.00;;
50880;SDS011;36858;47.832;-3.800;2023-04-29T14:20:05;3.50;;;2.27;;
50880;SDS011;36858;47.832;-3.800;2023-04-29T14:22:32;3.13;;;1.83;;
50880;SDS011;36858;47.832;-3.800;2023-04-29T14:24:59;1.87;;;1.70;;
50880;SDS011;36858;47.832;-3.800;2023-04-29T14:27:26;3.63;;;1.80;;
50880;SDS011;36858;47.832;-3.800;2023-04-29T14:29:53;2.00;;;1.90;;
50880;SDS011;36858;47.832;-3.800;2023-04-29T14:32:20;2.83;;;1.73;;
50880;SDS011;36858;47.832;-3.800;2023-04-29T14:34:47;3.73;;;1.57;;
50880;SDS011;36858;47.832;-3.800;2023-04-29T14:37:13;2.63;;;1.67;;
50880;SDS011;36858;47.832;-3.800;2023-04-29T14:39:40;1.57;;;1.47;;
50880;SDS011;36858;47.832;-3.800;2023-04-29T14:42:07;2.83;;;1.83;;
50880;SDS011;36858;47.832;-3.800;2023-04-29T14:44:34;1.63;;;1.50;;
50880;SDS011;36858;47.832;-3.800;2023-04-29T14:47:01;2.00;;;1.80;;
50880;SDS011;36858;47.832;-3.800;2023-04-29T14:49:28;2.47;;;1.80;;
50880;SDS011;36858;47.832;-3.800;2023-04-29T14:51:57;1.60;;;1.50;;
50880;SDS011;36858;47.832;-3.800;2023-04-29T14:54:23;2.47;;;1.90;;
50880;SDS011;36858;47.832;-3.800;2023-04-29T14:56:52;3.57;;;1.60;;
50880;SDS011;36858;47.832;-3.800;2023-04-29T14:59:19;1.80;;;1.60;;
50880;SDS011;36858;47.832;-3.800;2023-04-29T15:01:46;2.33;;;1.60;;
50880;SDS011;36858;47.832;-3.800;2023-04-29T15:04:13;1.53;;;1.43;;